sensor_id;sensor_type;location;lat;lon;timestamp;pressure;altitude;pressure_sealevel;temperature;humidity
55066;BME280;40964;42.114;24.220;2024-03-02T00:00:11;97435.91;;;8.01;100.00
55066;BME280;40964;42.114;24.220;2024-03-02T00:02:40;97433.91;;;7.89;100.00
55066;BME280;40964;42.114;24.220;2024-03-02T00:05:06;97439.66;;;7.73;100.00
55066;BME280;40964;42.114;24.220;2024-03-02T00:07:32;97437.03;;;7.66;100.00
55066;BME280;40964;42.114;24.220;2024-03-02T00:09:58;97445.72;;;7.60;100.00
55066;BME280;40964;42.114;24.220;2024-03-02T00:12:23;97437.28;;;7.52;100.00
55066;BME280;40964;42.114;24.220;2024-03-02T00:14:49;97438.09;;;7.46;100.00
55066;BME280;40964;42.114;24.220;2024-03-02T00:17:24;97431.25;;;7.45;100.00
55066;BME280;40964;42.114;24.220;2024-03-02T00:19:51;97439.72;;;7.47;100.00
55066;BME280;40964;42.114;24.220;2024-03-02T00:22:16;97433.28;;;7.43;100.00
55066;BME280;40964;42.114;24.220;2024-03-02T00:24:42;97438.06;;;7.52;100.00
55066;BME280;40964;42.114;24.220;2024-03-02T00:27:08;97439.31;;;7.43;100.00
55066;BME280;40964;42.114;24.220;2024-03-02T00:29:36;97441.50;;;7.53;100.00
55066;BME280;40964;42.114;24.220;2024-03-02T00:32:02;97432.84;;;7.59;100.00
55066;BME280;40964;42.114;24.220;2024-03-02T00:34:28;97431.81;;;7.53;100.00
55066;BME280;40964;42.114;24.220;2024-03-02T00:36:57;97422.38;;;7.52;100.00
55066;BME280;40964;42.114;24.220;2024-03-02T00:39:25;97414.34;;;7.47;100.00
55066;BME280;40964;42.114;24.220;2024-03-02T00:41:50;97410.94;;;7.40;100.00
55066;BME280;40964;42.114;24.220;2024-03-02T00:44:25;97407.91;;;7.36;100.00
55066;BME280;40964;42.114;24.220;2024-03-02T00:46:51;97403.69;;;7.35;100.00
55066;BME280;40964;42.114;24.220;2024-03-02T00:49:21;97393.84;;;7.37;100.00
55066;BME280;40964;42.114;24.220;2024-03-02T00:51:48;97401.09;;;7.35;100.00
55066;BME280;40964;42.114;24.220;2024-03-02T00:54:14;97393.22;;;7.42;100.00
55066;BME280;40964;42.114;24.220;2024-03-02T00:56:41;97393.84;;;7.37;100.00
55066;BME280;40964;42.114;24.220;2024-03-02T00:59:07;97391.03;;;7.32;100.00
55066;BME280;40964;42.114;24.220;2024-03-02T01:01:34;97383.41;;;7.37;100.00
55066;BME280;40964;42.114;24.220;2024-03-02T01:04:00;97383.13;;;7.46;100.00
55066;BME280;40964;42.114;24.220;2024-03-02T01:06:25;97374.47;;;7.52;100.00
55066;BME280;40964;42.114;24.220;2024-03-02T01:08:51;97373.88;;;7.50;100.00
55066;BME280;40964;42.114;24.220;2024-03-02T01:11:17;97366.84;;;7.44;100.00
55066;BME280;40964;42.114;24.220;2024-03-02T01:13:44;97371.50;;;7.35;100.00
55066;BME280;40964;42.114;24.220;2024-03-02T01:16:09;97370.31;;;7.37;100.00
55066;BME280;40964;42.114;24.220;2024-03-02T01:18:35;97371.91;;;7.38;100.00
55066;BME280;40964;42.114;24.220;2024-03-02T01:21:00;97370.06;;;7.46;100.00
55066;BME280;40964;42.114;24.220;2024-03-02T01:23:26;97369.47;;;7.44;100.00
55066;BME280;40964;42.114;24.220;2024-03-02T01:25:52;97361.47;;;7.38;100.00
55066;BME280;40964;42.114;24.220;2024-03-02T01:28:18;97365.22;;;7.49;100.00
55066;BME280;40964;42.114;24.220;2024-03-02T01:30:44;97372.50;;;7.47;100.00
55066;BME280;40964;42.114;24.220;2024-03-02T01:33:10;97364.00;;;7.52;100.00
55066;BME280;40964;42.114;24.220;2024-03-02T01:35:35;97361.19;;;7.53;100.00
55066;BME280;40964;42.114;24.220;2024-03-02T01:38:01;97373.28;;;7.48;100.00
55066;BME280;40964;42.114;24.220;2024-03-02T01:40:27;97367.88;;;7.43;100.00
55066;BME280;40964;42.114;24.220;2024-03-02T01:42:54;97356.00;;;7.47;100.00
55066;BME280;40964;42.114;24.220;2024-03-02T01:45:20;97371.06;;;7.51;100.00
55066;BME280;40964;42.114;24.220;2024-03-02T01:47:45;97360.59;;;7.45;100.00
55066;BME280;40964;42.114;24.220;2024-03-02T01:50:11;97362.41;;;7.51;100.00
55066;BME280;40964;42.114;24.220;2024-03-02T01:52:37;97359.81;;;7.44;100.00
55066;BME280;40964;42.114;24.220;2024-03-02T01:55:03;97352.75;;;7.45;100.00
55066;BME280;40964;42.114;24.220;2024-03-02T01:57:29;97350.41;;;7.30;100.00
55066;BME280;40964;42.114;24.220;2024-03-02T01:59:55;97350.63;;;7.22;100.00
55066;BME280;40964;42.114;24.220;2024-03-02T02:02:21;97350.03;;;7.20;100.00
55066;BME280;40964;42.114;24.220;2024-03-02T02:04:46;97359.06;;;7.30;100.00
55066;BME280;40964;42.114;24.220;2024-03-02T02:07:13;97363.50;;;7.23;100.00
55066;BME280;40964;42.114;24.220;2024-03-02T02:09:42;97355.00;;;7.34;100.00
55066;BME280;40964;42.114;24.220;2024-03-02T02:12:09;97359.22;;;7.35;100.00
55066;BME280;40964;42.114;24.220;2024-03-02T02:14:34;97356.66;;;7.29;100.00
55066;BME280;40964;42.114;24.220;2024-03-02T02:17:00;97352.81;;;7.31;100.00
55066;BME280;40964;42.114;24.220;2024-03-02T02:19:25;97363.28;;;7.31;100.00
55066;BME280;40964;42.114;24.220;2024-03-02T02:21:51;97366.69;;;7.38;100.00
55066;BME280;40964;42.114;24.220;2024-03-02T02:24:16;97352.81;;;7.38;100.00
55066;BME280;40964;42.114;24.220;2024-03-02T02:26:42;97355.59;;;7.43;100.00
55066;BME280;40964;42.114;24.220;2024-03-02T02:29:07;97350.75;;;7.47;100.00
55066;BME280;40964;42.114;24.220;2024-03-02T02:31:40;97348.31;;;7.52;100.00
55066;BME280;40964;42.114;24.220;2024-03-02T02:34:06;97356.59;;;7.49;100.00
55066;BME280;40964;42.114;24.220;2024-03-02T02:36:32;97346.91;;;7.49;100.00
55066;BME280;40964;42.114;24.220;2024-03-02T02:39:02;97334.28;;;7.39;100.00
55066;BME280;40964;42.114;24.220;2024-03-02T02:41:32;97347.75;;;7.43;100.00
55066;BME280;40964;42.114;24.220;2024-03-02T02:43:57;97351.75;;;7.46;100.00
55066;BME280;40964;42.114;24.220;2024-03-02T02:46:23;97347.16;;;7.34;100.00
55066;BME280;40964;42.114;24.220;2024-03-02T02:48:48;97344.34;;;7.36;100.00
55066;BME280;40964;42.114;24.220;2024-03-02T02:51:14;97344.50;;;7.48;100.00
55066;BME280;40964;42.114;24.220;2024-03-02T02:53:40;97306.03;;;7.03;100.00
55066;BME280;40964;42.114;24.220;2024-03-02T02:56:08;97348.41;;;7.19;100.00
55066;BME280;40964;42.114;24.220;2024-03-02T02:58:34;97350.00;;;7.26;100.00
55066;BME280;40964;42.114;24.220;2024-03-02T03:01:00;97347.38;;;7.33;100.00
55066;BME280;40964;42.114;24.220;2024-03-02T03:03:26;97349.38;;;7.37;100.00
55066;BME280;40964;42.114;24.220;2024-03-02T03:05:51;97341.50;;;7.44;100.00
55066;BME280;40964;42.114;24.220;2024-03-02T03:08:17;97347.59;;;7.31;100.00
55066;BME280;40964;42.114;24.220;2024-03-02T03:10:42;97348.78;;;7.35;100.00
55066;BME280;40964;42.114;24.220;2024-03-02T03:13:08;97336.31;;;7.37;100.00
55066;BME280;40964;42.114;24.220;2024-03-02T03:15:37;97338.50;;;7.34;100.00
55066;BME280;40964;42.114;24.220;2024-03-02T03:18:05;97348.19;;;7.33;100.00
55066;BME280;40964;42.114;24.220;2024-03-02T03:20:31;97344.97;;;7.38;100.00
55066;BME280;40964;42.114;24.220;2024-03-02T03:22:57;97341.13;;;7.40;100.00
55066;BME280;40964;42.114;24.220;2024-03-02T03:25:23;97298.19;;;7.10;100.00
55066;BME280;40964;42.114;24.220;2024-03-02T03:27:48;97342.50;;;7.43;100.00
55066;BME280;40964;42.114;24.220;2024-03-02T03:30:14;97347.38;;;7.33;100.00
55066;BME280;40964;42.114;24.220;2024-03-02T03:32:40;97342.72;;;7.42;100.00
55066;BME280;40964;42.114;24.220;2024-03-02T03:35:06;97344.53;;;7.41;100.00
55066;BME280;40964;42.114;24.220;2024-03-02T03:37:32;97342.72;;;7.42;100.00
55066;BME280;40964;42.114;24.220;2024-03-02T03:40:04;97332.63;;;7.45;100.00
55066;BME280;40964;42.114;24.220;2024-03-02T03:42:36;97334.44;;;7.51;100.00
55066;BME280;40964;42.114;24.220;2024-03-02T03:45:05;97345.56;;;7.33;100.00
55066;BME280;40964;42.114;24.220;2024-03-02T03:47:31;97339.97;;;7.17;100.00
55066;BME280;40964;42.114;24.220;2024-03-02T03:49:57;97331.59;;;6.95;100.00
55066;BME280;40964;42.114;24.220;2024-03-02T03:52:23;97346.28;;;6.96;100.00
55066;BME280;40964;42.114;24.220;2024-03-02T03:54:48;97345.69;;;6.80;100.00
55066;BME280;40964;42.114;24.220;2024-03-02T03:57:14;97341.06;;;6.82;100.00
55066;BME280;40964;42.114;24.220;2024-03-02T03:59:39;97347.28;;;6.81;100.00
55066;BME280;40964;42.114;24.220;2024-03-02T04:02:04;97342.06;;;6.81;100.00
55066;BME280;40964;42.114;24.220;2024-03-02T04:04:30;97337.47;;;6.77;100.00
55066;BME280;40964;42.114;24.220;2024-03-02T04:06:55;97330.41;;;6.71;100.00
55066;BME280;40964;42.114;24.220;2024-03-02T04:09:21;97327.00;;;6.83;100.00
55066;BME280;40964;42.114;24.220;2024-03-02T04:11:46;97343.28;;;6.92;100.00
55066;BME280;40964;42.114;24.220;2024-03-02T04:14:12;97332.22;;;6.83;100.00
55066;BME280;40964;42.114;24.220;2024-03-02T04:16:38;97336.44;;;6.85;100.00
55066;BME280;40964;42.114;24.220;2024-03-02T04:19:04;97337.22;;;6.92;100.00
55066;BME280;40964;42.114;24.220;2024-03-02T04:21:30;97315.16;;;6.74;100.00
55066;BME280;40964;42.114;24.220;2024-03-02T04:23:56;97328.81;;;6.83;100.00
55066;BME280;40964;42.114;24.220;2024-03-02T04:26:24;97337.63;;;6.82;100.00
55066;BME280;40964;42.114;24.220;2024-03-02T04:28:51;97339.47;;;6.75;100.00
55066;BME280;40964;42.114;24.220;2024-03-02T04:31:16;97317.97;;;6.66;100.00
55066;BME280;40964;42.114;24.220;2024-03-02T04:33:42;97326.41;;;6.62;100.00
55066;BME280;40964;42.114;24.220;2024-03-02T04:36:07;97336.06;;;6.61;100.00
55066;BME280;40964;42.114;24.220;2024-03-02T04:38:35;97339.69;;;6.53;100.00
55066;BME280;40964;42.114;24.220;2024-03-02T04:41:00;97344.50;;;6.57;100.00
55066;BME280;40964;42.114;24.220;2024-03-02T04:43:25;97341.28;;;6.61;100.00
55066;BME280;40964;42.114;24.220;2024-03-02T04:45:51;97346.31;;;6.63;100.00
55066;BME280;40964;42.114;24.220;2024-03-02T04:48:16;97343.88;;;6.54;100.00
55066;BME280;40964;42.114;24.220;2024-03-02T04:50:42;97349.91;;;6.55;100.00
55066;BME280;40964;42.114;24.220;2024-03-02T04:53:07;97347.13;;;6.50;100.00
55066;BME280;40964;42.114;24.220;2024-03-02T04:55:33;97348.72;;;6.44;100.00
55066;BME280;40964;42.114;24.220;2024-03-02T04:58:04;97356.16;;;6.41;100.00
55066;BME280;40964;42.114;24.220;2024-03-02T05:00:30;97346.09;;;6.38;100.00
55066;BME280;40964;42.114;24.220;2024-03-02T05:02:56;97358.16;;;6.45;100.00
55066;BME280;40964;42.114;24.220;2024-03-02T05:05:21;97345.28;;;6.37;100.00
55066;BME280;40964;42.114;24.220;2024-03-02T05:07:47;97363.19;;;6.40;100.00
55066;BME280;40964;42.114;24.220;2024-03-02T05:10:12;97366.19;;;6.37;100.00
55066;BME280;40964;42.114;24.220;2024-03-02T05:12:38;97370.03;;;6.48;100.00
55066;BME280;40964;42.114;24.220;2024-03-02T05:15:13;97355.38;;;6.40;100.00
55066;BME280;40964;42.114;24.220;2024-03-02T05:17:40;97369.03;;;6.49;100.00
55066;BME280;40964;42.114;24.220;2024-03-02T05:20:06;97376.06;;;6.42;100.00
55066;BME280;40964;42.114;24.220;2024-03-02T05:22:38;97376.63;;;6.37;100.00
55066;BME280;40964;42.114;24.220;2024-03-02T05:25:05;97366.41;;;6.36;100.00
55066;BME280;40964;42.114;24.220;2024-03-02T05:27:30;97368.59;;;6.45;100.00
55066;BME280;40964;42.114;24.220;2024-03-02T05:29:58;97376.06;;;6.48;100.00
55066;BME280;40964;42.114;24.220;2024-03-02T05:32:23;97375.44;;;6.53;100.00
55066;BME280;40964;42.114;24.220;2024-03-02T05:34:49;97375.47;;;6.40;100.00
55066;BME280;40964;42.114;24.220;2024-03-02T05:37:16;97362.38;;;6.33;100.00
55066;BME280;40964;42.114;24.220;2024-03-02T05:39:41;97374.06;;;6.57;100.00
55066;BME280;40964;42.114;24.220;2024-03-02T05:42:08;97367.81;;;6.58;100.00
55066;BME280;40964;42.114;24.220;2024-03-02T05:44:34;97384.28;;;6.72;100.00
55066;BME280;40964;42.114;24.220;2024-03-02T05:47:00;97373.44;;;6.68;100.00
55066;BME280;40964;42.114;24.220;2024-03-02T05:49:25;97379.88;;;6.86;100.00
55066;BME280;40964;42.114;24.220;2024-03-02T05:51:51;97392.13;;;6.85;100.00
55066;BME280;40964;42.114;24.220;2024-03-02T05:54:16;97386.69;;;6.93;100.00
55066;BME280;40964;42.114;24.220;2024-03-02T05:56:41;97390.72;;;6.82;100.00
55066;BME280;40964;42.114;24.220;2024-03-02T05:59:07;97392.34;;;6.83;100.00
55066;BME280;40964;42.114;24.220;2024-03-02T06:01:43;97395.13;;;6.95;100.00
55066;BME280;40964;42.114;24.220;2024-03-02T06:04:09;97395.56;;;6.86;100.00
55066;BME280;40964;42.114;24.220;2024-03-02T06:06:36;97398.38;;;6.84;100.00
55066;BME280;40964;42.114;24.220;2024-03-02T06:09:02;97389.72;;;6.77;100.00
55066;BME280;40964;42.114;24.220;2024-03-02T06:11:36;97384.69;;;6.75;100.00
55066;BME280;40964;42.114;24.220;2024-03-02T06:14:02;97404.59;;;6.90;100.00
55066;BME280;40964;42.114;24.220;2024-03-02T06:16:28;97394.16;;;6.76;100.00
55066;BME280;40964;42.114;24.220;2024-03-02T06:18:53;97403.59;;;6.77;100.00
55066;BME280;40964;42.114;24.220;2024-03-02T06:21:19;97395.34;;;6.74;100.00
55066;BME280;40964;42.114;24.220;2024-03-02T06:23:45;97399.34;;;6.63;100.00
55066;BME280;40964;42.114;24.220;2024-03-02T06:26:10;97395.53;;;6.52;100.00
55066;BME280;40964;42.114;24.220;2024-03-02T06:28:36;97399.75;;;6.53;100.00
55066;BME280;40964;42.114;24.220;2024-03-02T06:31:02;97392.72;;;6.34;100.00
55066;BME280;40964;42.114;24.220;2024-03-02T06:33:27;97409.41;;;6.40;100.00
55066;BME280;40964;42.114;24.220;2024-03-02T06:35:54;97414.81;;;6.45;100.00
55066;BME280;40964;42.114;24.220;2024-03-02T06:38:19;97403.56;;;6.44;100.00
55066;BME280;40964;42.114;24.220;2024-03-02T06:40:45;97408.41;;;6.41;100.00
55066;BME280;40964;42.114;24.220;2024-03-02T06:43:10;97411.63;;;6.49;100.00
55066;BME280;40964;42.114;24.220;2024-03-02T06:45:36;97408.59;;;6.46;100.00
55066;BME280;40964;42.114;24.220;2024-03-02T06:48:01;97419.25;;;6.44;100.00
55066;BME280;40964;42.114;24.220;2024-03-02T06:50:27;97412.63;;;6.55;100.00
55066;BME280;40964;42.114;24.220;2024-03-02T06:52:52;97402.16;;;6.55;100.00
55066;BME280;40964;42.114;24.220;2024-03-02T06:55:18;97407.81;;;6.65;100.00
55066;BME280;40964;42.114;24.220;2024-03-02T06:57:43;97414.03;;;6.64;100.00
55066;BME280;40964;42.114;24.220;2024-03-02T07:00:09;97410.63;;;6.70;100.00
55066;BME280;40964;42.114;24.220;2024-03-02T07:02:35;97418.84;;;6.74;100.00
55066;BME280;40964;42.114;24.220;2024-03-02T07:05:02;97414.84;;;6.71;100.00
55066;BME280;40964;42.114;24.220;2024-03-02T07:07:28;97420.28;;;6.76;100.00
55066;BME280;40964;42.114;24.220;2024-03-02T07:09:53;97416.25;;;6.80;100.00
55066;BME280;40964;42.114;24.220;2024-03-02T07:12:18;97423.88;;;6.89;100.00
55066;BME280;40964;42.114;24.220;2024-03-02T07:14:44;97420.25;;;6.90;100.00
55066;BME280;40964;42.114;24.220;2024-03-02T07:17:28;97423.72;;;6.83;100.00
55066;BME280;40964;42.114;24.220;2024-03-02T07:19:53;97431.31;;;6.92;100.00
55066;BME280;40964;42.114;24.220;2024-03-02T07:22:19;97426.91;;;6.92;100.00
55066;BME280;40964;42.114;24.220;2024-03-02T07:24:45;97418.66;;;6.95;100.00
55066;BME280;40964;42.114;24.220;2024-03-02T07:27:13;97419.66;;;7.01;100.00
55066;BME280;40964;42.114;24.220;2024-03-02T07:29:39;97415.25;;;7.01;100.00
55066;BME280;40964;42.114;24.220;2024-03-02T07:32:05;97426.09;;;6.98;100.00
55066;BME280;40964;42.114;24.220;2024-03-02T07:34:31;97426.50;;;7.02;100.00
55066;BME280;40964;42.114;24.220;2024-03-02T07:36:57;97434.75;;;7.05;100.00
55066;BME280;40964;42.114;24.220;2024-03-02T07:39:23;97422.47;;;7.13;100.00
55066;BME280;40964;42.114;24.220;2024-03-02T07:41:48;97428.28;;;7.21;100.00
55066;BME280;40964;42.114;24.220;2024-03-02T07:44:14;97428.25;;;7.28;100.00
55066;BME280;40964;42.114;24.220;2024-03-02T07:46:43;97436.31;;;7.26;100.00
55066;BME280;40964;42.114;24.220;2024-03-02T07:49:09;97435.94;;;7.16;100.00
55066;BME280;40964;42.114;24.220;2024-03-02T07:51:35;97439.16;;;7.18;100.00
55066;BME280;40964;42.114;24.220;2024-03-02T07:54:01;97431.31;;;7.11;100.00
55066;BME280;40964;42.114;24.220;2024-03-02T07:56:30;97434.72;;;7.25;100.00
55066;BME280;40964;42.114;24.220;2024-03-02T07:58:56;97438.34;;;7.37;100.00
55066;BME280;40964;42.114;24.220;2024-03-02T08:01:29;97442.56;;;7.38;100.00
55066;BME280;40964;42.114;24.220;2024-03-02T08:03:57;97439.31;;;7.36;100.00
55066;BME280;40964;42.114;24.220;2024-03-02T08:06:24;97437.69;;;7.42;100.00
55066;BME280;40964;42.114;24.220;2024-03-02T08:08:56;97438.88;;;7.53;100.00
55066;BME280;40964;42.114;24.220;2024-03-02T08:11:22;97439.25;;;7.63;100.00
55066;BME280;40964;42.114;24.220;2024-03-02T08:13:48;97443.44;;;7.77;100.00
55066;BME280;40964;42.114;24.220;2024-03-02T08:16:15;97440.03;;;7.70;100.00
55066;BME280;40964;42.114;24.220;2024-03-02T08:18:40;97442.09;;;7.55;100.00
55066;BME280;40964;42.114;24.220;2024-03-02T08:21:06;97445.13;;;7.45;100.00
55066;BME280;40964;42.114;24.220;2024-03-02T08:23:34;97449.38;;;7.46;100.00
55066;BME280;40964;42.114;24.220;2024-03-02T08:26:00;97449.38;;;7.39;100.00
55066;BME280;40964;42.114;24.220;2024-03-02T08:28:25;97438.34;;;7.37;100.00
55066;BME280;40964;42.114;24.220;2024-03-02T08:30:51;97446.13;;;7.57;100.00
55066;BME280;40964;42.114;24.220;2024-03-02T08:33:16;97449.53;;;7.64;100.00
55066;BME280;40964;42.114;24.220;2024-03-02T08:35:42;97450.94;;;7.54;100.00
55066;BME280;40964;42.114;24.220;2024-03-02T08:38:07;97461.41;;;7.54;100.00
55066;BME280;40964;42.114;24.220;2024-03-02T08:40:33;97451.59;;;7.49;100.00
55066;BME280;40964;42.114;24.220;2024-03-02T08:42:58;97455.56;;;7.65;100.00
55066;BME280;40964;42.114;24.220;2024-03-02T08:45:24;97455.97;;;7.62;100.00
55066;BME280;40964;42.114;24.220;2024-03-02T08:47:49;97455.94;;;7.75;100.00
55066;BME280;40964;42.114;24.220;2024-03-02T08:50:16;97454.50;;;7.86;100.00
55066;BME280;40964;42.114;24.220;2024-03-02T08:52:41;97457.69;;;7.88;100.00
55066;BME280;40964;42.114;24.220;2024-03-02T08:55:07;97457.31;;;7.84;100.00
55066;BME280;40964;42.114;24.220;2024-03-02T08:57:33;97454.28;;;7.81;100.00
55066;BME280;40964;42.114;24.220;2024-03-02T08:59:59;97463.16;;;7.86;100.00
55066;BME280;40964;42.114;24.220;2024-03-02T09:02:25;97460.88;;;7.96;100.00
55066;BME280;40964;42.114;24.220;2024-03-02T09:04:51;97465.31;;;8.03;100.00
55066;BME280;40964;42.114;24.220;2024-03-02T09:07:16;97464.53;;;7.95;100.00
55066;BME280;40964;42.114;24.220;2024-03-02T09:09:42;97466.94;;;7.97;100.00
55066;BME280;40964;42.114;24.220;2024-03-02T09:14:42;97465.44;;;8.14;100.00
55066;BME280;40964;42.114;24.220;2024-03-02T09:17:08;97463.47;;;8.10;100.00
55066;BME280;40964;42.114;24.220;2024-03-02T09:19:36;97464.84;;;8.19;100.00
55066;BME280;40964;42.114;24.220;2024-03-02T09:22:01;97464.97;;;8.37;100.00
55066;BME280;40964;42.114;24.220;2024-03-02T09:24:28;97463.50;;;8.48;100.00
55066;BME280;40964;42.114;24.220;2024-03-02T09:26:54;97459.03;;;8.55;100.00
55066;BME280;40964;42.114;24.220;2024-03-02T09:29:19;97461.44;;;8.50;100.00
55066;BME280;40964;42.114;24.220;2024-03-02T09:31:46;97460.09;;;8.34;100.00
55066;BME280;40964;42.114;24.220;2024-03-02T09:34:12;97459.13;;;8.35;100.00
55066;BME280;40964;42.114;24.220;2024-03-02T09:36:37;97461.63;;;8.55;100.00
55066;BME280;40964;42.114;24.220;2024-03-02T09:39:03;97445.59;;;8.70;100.00
55066;BME280;40964;42.114;24.220;2024-03-02T09:41:29;97441.66;;;8.86;100.00
55066;BME280;40964;42.114;24.220;2024-03-02T09:43:55;97445.03;;;8.93;100.00
55066;BME280;40964;42.114;24.220;2024-03-02T09:46:20;97438.19;;;8.92;100.00
55066;BME280;40964;42.114;24.220;2024-03-02T09:48:46;97427.41;;;8.75;100.00
55066;BME280;40964;42.114;24.220;2024-03-02T09:51:11;97435.03;;;8.83;100.00
55066;BME280;40964;42.114;24.220;2024-03-02T09:53:37;97430.72;;;8.89;100.00
55066;BME280;40964;42.114;24.220;2024-03-02T09:56:03;97428.81;;;8.77;100.00
55066;BME280;40964;42.114;24.220;2024-03-02T09:58:30;97432.91;;;8.67;100.00
55066;BME280;40964;42.114;24.220;2024-03-02T10:00:56;97419.69;;;8.55;100.00
55066;BME280;40964;42.114;24.220;2024-03-02T10:03:22;97418.50;;;8.51;100.00
55066;BME280;40964;42.114;24.220;2024-03-02T10:05:49;97419.16;;;8.46;100.00
55066;BME280;40964;42.114;24.220;2024-03-02T10:08:15;97418.34;;;8.71;100.00
55066;BME280;40964;42.114;24.220;2024-03-02T10:10:41;97413.03;;;8.84;100.00
55066;BME280;40964;42.114;24.220;2024-03-02T10:13:09;97426.09;;;8.91;100.00
55066;BME280;40964;42.114;24.220;2024-03-02T10:15:36;97412.09;;;8.97;100.00
55066;BME280;40964;42.114;24.220;2024-03-02T10:18:12;97411.09;;;9.16;100.00
55066;BME280;40964;42.114;24.220;2024-03-02T10:20:39;97416.38;;;9.34;100.00
55066;BME280;40964;42.114;24.220;2024-03-02T10:23:15;97412.06;;;9.22;100.00
55066;BME280;40964;42.114;24.220;2024-03-02T10:25:41;97417.78;;;8.94;100.00
55066;BME280;40964;42.114;24.220;2024-03-02T10:28:07;97421.47;;;8.86;100.00
55066;BME280;40964;42.114;24.220;2024-03-02T10:30:33;97422.06;;;8.88;100.00
55066;BME280;40964;42.114;24.220;2024-03-02T10:33:03;97424.56;;;8.76;100.00
55066;BME280;40964;42.114;24.220;2024-03-02T10:35:29;97412.47;;;8.75;100.00
55066;BME280;40964;42.114;24.220;2024-03-02T10:37:58;97406.75;;;8.85;100.00
55066;BME280;40964;42.114;24.220;2024-03-02T10:40:24;97412.31;;;8.95;100.00
55066;BME280;40964;42.114;24.220;2024-03-02T10:42:50;97399.78;;;8.97;100.00
55066;BME280;40964;42.114;24.220;2024-03-02T10:45:17;97411.63;;;8.81;100.00
55066;BME280;40964;42.114;24.220;2024-03-02T10:47:44;97393.66;;;8.85;100.00
55066;BME280;40964;42.114;24.220;2024-03-02T10:50:12;97397.91;;;9.04;100.00
55066;BME280;40964;42.114;24.220;2024-03-02T10:52:38;97391.09;;;9.22;100.00
55066;BME280;40964;42.114;24.220;2024-03-02T10:55:05;97393.94;;;9.38;100.00
55066;BME280;40964;42.114;24.220;2024-03-02T10:57:51;97386.66;;;9.41;100.00
55066;BME280;40964;42.114;24.220;2024-03-02T11:00:19;97391.53;;;9.55;100.00
55066;BME280;40964;42.114;24.220;2024-03-02T11:02:57;97396.91;;;9.60;100.00
55066;BME280;40964;42.114;24.220;2024-03-02T11:05:34;97399.41;;;9.37;100.00
55066;BME280;40964;42.114;24.220;2024-03-02T11:08:02;97390.28;;;9.39;100.00
55066;BME280;40964;42.114;24.220;2024-03-02T11:10:37;97398.84;;;9.53;100.00
55066;BME280;40964;42.114;24.220;2024-03-02T11:13:05;97394.75;;;9.39;100.00
55066;BME280;40964;42.114;24.220;2024-03-02T11:15:34;97391.91;;;9.41;100.00
55066;BME280;40964;42.114;24.220;2024-03-02T11:18:05;97388.25;;;9.42;100.00
55066;BME280;40964;42.114;24.220;2024-03-02T11:20:37;97398.75;;;9.42;100.00
55066;BME280;40964;42.114;24.220;2024-03-02T11:23:07;97388.47;;;9.40;100.00
55066;BME280;40964;42.114;24.220;2024-03-02T11:25:34;97391.66;;;9.24;100.00
55066;BME280;40964;42.114;24.220;2024-03-02T11:28:06;97350.97;;;8.96;100.00
55066;BME280;40964;42.114;24.220;2024-03-02T11:33:05;97394.81;;;9.51;100.00
55066;BME280;40964;42.114;24.220;2024-03-02T11:35:38;97391.88;;;9.59;100.00
55066;BME280;40964;42.114;24.220;2024-03-02T11:38:09;97389.94;;;9.54;100.00
55066;BME280;40964;42.114;24.220;2024-03-02T11:40:34;97382.63;;;9.75;100.00
55066;BME280;40964;42.114;24.220;2024-03-02T11:43:00;97393.44;;;9.66;100.00
55066;BME280;40964;42.114;24.220;2024-03-02T11:45:26;97383.66;;;9.74;100.00
55066;BME280;40964;42.114;24.220;2024-03-02T11:47:56;97387.69;;;9.88;100.00
55066;BME280;40964;42.114;24.220;2024-03-02T11:50:57;97378.47;;;9.97;100.00
55066;BME280;40964;42.114;24.220;2024-03-02T11:53:21;97377.69;;;9.96;100.00
55066;BME280;40964;42.114;24.220;2024-03-02T11:55:46;97375.16;;;9.90;100.00
55066;BME280;40964;42.114;24.220;2024-03-02T11:58:13;97372.88;;;9.93;100.00
55066;BME280;40964;42.114;24.220;2024-03-02T12:00:39;97367.09;;;10.03;100.00
55066;BME280;40964;42.114;24.220;2024-03-02T12:05:31;97368.63;;;10.11;100.00
55066;BME280;40964;42.114;24.220;2024-03-02T12:08:01;97362.66;;;10.34;100.00
55066;BME280;40964;42.114;24.220;2024-03-02T12:10:27;97359.03;;;10.46;100.00
55066;BME280;40964;42.114;24.220;2024-03-02T12:13:04;97361.75;;;10.40;100.00
55066;BME280;40964;42.114;24.220;2024-03-02T12:15:32;97360.66;;;10.17;100.00
55066;BME280;40964;42.114;24.220;2024-03-02T12:17:58;97356.13;;;10.06;100.00
55066;BME280;40964;42.114;24.220;2024-03-02T12:20:25;97364.84;;;10.07;100.00
55066;BME280;40964;42.114;24.220;2024-03-02T12:22:52;97364.94;;;10.00;100.00
55066;BME280;40964;42.114;24.220;2024-03-02T12:25:19;97364.84;;;10.07;100.00
55066;BME280;40964;42.114;24.220;2024-03-02T12:27:45;97364.84;;;10.07;100.00
55066;BME280;40964;42.114;24.220;2024-03-02T12:30:12;97367.03;;;10.21;100.00
55066;BME280;40964;42.114;24.220;2024-03-02T12:32:40;97345.81;;;10.23;100.00
55066;BME280;40964;42.114;24.220;2024-03-02T12:35:06;97361.31;;;10.13;100.00
55066;BME280;40964;42.114;24.220;2024-03-02T12:37:31;97364.34;;;10.28;100.00
55066;BME280;40964;42.114;24.220;2024-03-02T12:39:57;97357.06;;;10.42;100.00
55066;BME280;40964;42.114;24.220;2024-03-02T12:42:23;97361.41;;;10.48;100.00
55066;BME280;40964;42.114;24.220;2024-03-02T12:44:51;97359.34;;;10.50;100.00
55066;BME280;40964;42.114;24.220;2024-03-02T12:47:19;97352.81;;;10.29;100.00
55066;BME280;40964;42.114;24.220;2024-03-02T12:49:45;97353.28;;;10.26;100.00
55066;BME280;40964;42.114;24.220;2024-03-02T12:52:14;97362.66;;;10.15;100.00
55066;BME280;40964;42.114;24.220;2024-03-02T12:54:39;97359.63;;;10.18;100.00